Time;durP1;ratioP1;P1;durP2;ratioP2;P2;SDS_P1;SDS_P2;PMS_P1;PMS_P2;Temp;Humidity;BMP_temperature;BMP_pressure;BME280_temperature;BME280_humidity;BME280_pressure;Samples;Min_cycle;Max_cycle;Signal;HPM_P1;HPM_P2
2022/03/12 00:04:31;;;;;;;47.67;17.27;;;-2.90;68.70;;;;;;10273121;28;20062;-86
2022/03/12 00:09:31;;;;;;;52.57;19.07;;;-2.90;68.90;;;;;;10289927;28;20509;-87
2022/03/12 00:14:35;;;;;;;41.13;16.43;;;-3.00;68.50;;;;;;10290108;28;20043;-86
2022/03/12 00:19:36;;;;;;;35.27;14.60;;;-3.00;68.70;;;;;;10272376;28;20035;-86
2022/03/12 00:24:41;;;;;;;52.87;18.40;;;-3.00;68.60;;;;;;10270209;28;20038;-86
2022/03/12 00:29:43;;;;;;;35.25;14.20;;;-2.90;68.40;;;;;;10271867;28;20038;-86
2022/03/12 00:34:44;;;;;;;38.73;12.80;;;-3.00;68.50;;;;;;10288521;28;20038;-86
2022/03/12 00:39:47;;;;;;;36.03;12.27;;;-3.10;68.60;;;;;;10289299;28;20042;-87
2022/03/12 00:44:48;;;;;;;41.97;14.60;;;-3.10;68.90;;;;;;10289451;28;20085;-87
2022/03/12 00:49:50;;;;;;;39.40;15.80;;;-3.20;69.60;;;;;;10265347;28;20031;-86
2022/03/12 00:54:50;;;;;;;45.70;17.97;;;-3.30;70.10;;;;;;10265568;28;20455;-86
2022/03/12 00:59:51;;;;;;;45.97;17.33;;;-3.30;70.70;;;;;;10287974;28;20031;-87
2022/03/12 01:04:52;;;;;;;43.43;16.67;;;-3.30;70.80;;;;;;10270308;28;20427;-86
2022/03/12 01:09:53;;;;;;;49.67;16.47;;;-3.40;71.10;;;;;;10286936;28;20018;-87
2022/03/12 01:14:54;;;;;;;40.77;15.53;;;-3.50;71.50;;;;;;10287381;28;20490;-86
2022/03/12 01:19:55;;;;;;;44.73;17.33;;;-3.60;71.40;;;;;;10286921;28;20054;-88
2022/03/12 01:24:55;;;;;;;43.80;16.53;;;-3.70;71.60;;;;;;10286797;28;20085;-86
2022/03/12 01:29:56;;;;;;;32.47;12.37;;;-3.70;71.60;;;;;;10287210;28;20051;-86
2022/03/12 01:34:57;;;;;;;42.33;15.10;;;-3.70;71.40;;;;;;10286908;28;20053;-84
2022/03/12 01:39:58;;;;;;;35.03;12.73;;;-3.60;70.90;;;;;;10286692;28;20027;-85
2022/03/12 01:44:58;;;;;;;39.70;14.07;;;-3.50;70.80;;;;;;10269043;28;20033;-84
2022/03/12 01:49:59;;;;;;;36.53;13.53;;;-3.40;70.60;;;;;;10285856;28;20034;-85
2022/03/12 01:55:00;;;;;;;34.03;13.47;;;-3.40;70.60;;;;;;10286644;28;20035;-84
2022/03/12 02:00:05;;;;;;;56.00;18.57;;;-3.40;70.20;;;;;;10268044;28;20023;-85
2022/03/12 02:05:06;;;;;;;63.47;19.00;;;-3.40;70.50;;;;;;10286287;28;20034;-85
2022/03/12 02:10:09;;;;;;;46.37;17.70;;;-3.50;70.60;;;;;;10287259;28;20030;-86
2022/03/12 02:15:10;;;;;;;46.17;15.70;;;-3.50;70.50;;;;;;10285450;28;20034;-85
2022/03/12 02:20:11;;;;;;;46.57;18.07;;;-3.40;70.60;;;;;;10289200;28;20023;-85
2022/03/12 02:25:14;;;;;;;66.07;22.13;;;-3.50;70.40;;;;;;10293997;28;20033;-85
2022/03/12 02:30:15;;;;;;;56.63;21.37;;;-3.40;70.60;;;;;;10293195;28;20059;-86
2022/03/12 02:35:17;;;;;;;39.00;15.07;;;-3.40;70.20;;;;;;10293904;28;20062;-85
2022/03/12 02:40:20;;;;;;;28.23;12.10;;;-3.40;70.20;;;;;;10291789;28;20019;-85
2022/03/12 02:45:22;;;;;;;35.40;12.10;;;-3.50;70.30;;;;;;10275387;28;20031;-85
2022/03/12 02:50:24;;;;;;;28.27;10.10;;;-3.50;69.90;;;;;;10293325;28;20070;-85
2022/03/12 02:55:25;;;;;;;27.27;9.67;;;-3.60;70.00;;;;;;10292631;28;20383;-85
2022/03/12 03:00:26;;;;;;;26.17;10.17;;;-3.70;70.00;;;;;;10292661;28;20023;-86
2022/03/12 03:10:40;;;;;;;25.67;9.80;;;-4.00;70.70;;;;;;10292127;28;20058;-86
2022/03/12 03:15:42;;;;;;;32.80;12.57;;;-4.00;70.50;;;;;;10274115;28;20049;-86
2022/03/12 03:20:43;;;;;;;30.00;11.33;;;-4.10;70.70;;;;;;10291888;28;20026;-85
2022/03/12 03:25:44;;;;;;;26.10;10.60;;;-4.10;71.20;;;;;;10291546;28;20037;-85
2022/03/12 03:30:45;;;;;;;25.93;11.20;;;-4.20;71.30;;;;;;10290992;28;20047;-85
2022/03/12 03:35:47;;;;;;;48.53;18.73;;;-4.30;71.60;;;;;;10290959;28;20126;-85
2022/03/12 03:40:48;;;;;;;112.87;34.73;;;-4.30;71.80;;;;;;10273966;28;20041;-84
2022/03/12 03:45:51;;;;;;;331.43;92.03;;;-4.30;71.80;;;;;;10290922;28;20031;-84
2022/03/12 03:50:53;;;;;;;190.73;53.53;;;-4.30;71.70;;;;;;10291426;28;20078;-85
2022/03/12 03:55:58;;;;;;;197.30;54.57;;;-4.40;72.40;;;;;;10290380;28;20066;-84
2022/03/12 04:01:03;;;;;;;293.07;77.20;;;-4.50;72.50;;;;;;10290797;28;20391;-86
2022/03/12 04:06:05;;;;;;;184.37;50.17;;;-4.60;72.60;;;;;;10288427;28;20075;-85
2022/03/12 04:11:05;;;;;;;153.57;45.43;;;-4.50;72.60;;;;;;10273352;28;20054;-86
2022/03/12 04:16:06;;;;;;;128.93;37.63;;;-4.50;72.90;;;;;;10288692;28;20475;-85
2022/03/12 04:21:08;;;;;;;94.03;27.57;;;-4.50;72.80;;;;;;10289764;28;20039;-84
2022/03/12 04:26:13;;;;;;;59.20;17.33;;;-4.60;72.40;;;;;;10271082;28;20081;-86
2022/03/12 04:31:14;;;;;;;43.67;15.50;;;-4.60;72.80;;;;;;10272328;28;20027;-87
2022/03/12 04:36:14;;;;;;;74.17;23.37;;;-4.60;73.10;;;;;;10271120;28;20510;-85
2022/03/12 04:41:17;;;;;;;71.17;22.90;;;-4.70;73.10;;;;;;10288209;28;20039;-85
2022/03/12 04:46:18;;;;;;;62.13;21.10;;;-4.80;73.20;;;;;;10271698;28;20025;-86
2022/03/12 04:51:18;;;;;;;39.43;15.27;;;-4.80;73.60;;;;;;10289274;28;20387;-85
2022/03/12 04:56:22;;;;;;;29.57;12.60;;;-4.90;73.70;;;;;;10271059;28;20119;-85
2022/03/12 05:01:24;;;;;;;24.97;9.20;;;-4.90;73.30;;;;;;10287069;28;20454;-85
2022/03/12 05:06:26;;;;;;;26.23;10.13;;;-4.90;73.30;;;;;;10286886;28;20034;-84
2022/03/12 05:11:27;;;;;;;21.80;9.33;;;-4.90;73.30;;;;;;10287337;28;20034;-86
2022/03/12 05:16:28;;;;;;;27.87;11.17;;;-4.90;73.90;;;;;;10286370;28;20086;-87
2022/03/12 05:21:29;;;;;;;21.13;9.40;;;-5.00;73.40;;;;;;10268748;28;20026;-85
2022/03/12 05:26:29;;;;;;;21.77;8.83;;;-5.00;73.30;;;;;;10286853;28;20554;-84
2022/03/12 05:31:30;;;;;;;23.47;8.50;;;-5.00;74.60;;;;;;10286540;28;20503;-85
2022/03/12 05:36:31;;;;;;;18.10;8.30;;;-5.00;73.80;;;;;;10286224;28;20039;-85
2022/03/12 05:41:34;;;;;;;37.97;16.83;;;-4.90;74.00;;;;;;10285001;28;20545;-85
2022/03/12 05:46:35;;;;;;;38.23;15.80;;;-4.80;74.30;;;;;;10268217;28;20035;-84
2022/03/12 05:51:37;;;;;;;54.43;20.03;;;-4.60;74.30;;;;;;10286240;28;20039;-84
2022/03/12 05:56:40;;;;;;;106.40;37.37;;;-4.60;74.40;;;;;;10280447;28;20061;-84
2022/03/12 06:01:41;;;;;;;104.43;33.83;;;-4.50;74.20;;;;;;10263366;28;20538;-83
2022/03/12 06:06:48;;;;;;;63.87;24.60;;;-4.30;74.20;;;;;;10285827;28;20033;-84
2022/03/12 06:11:53;;;;;;;46.13;15.67;;;-4.20;74.20;;;;;;10268521;28;20131;-84
2022/03/12 06:16:54;;;;;;;45.20;18.23;;;-4.10;74.50;;;;;;10264436;28;20503;-84
2022/03/12 06:21:56;;;;;;;118.80;45.43;;;-4.00;73.90;;;;;;10279557;28;20019;-83
2022/03/12 06:26:58;;;;;;;152.37;55.87;;;-3.80;73.70;;;;;;10267957;28;20142;-85
2022/03/12 06:31:59;;;;;;;41.17;15.03;;;-3.60;73.50;;;;;;10285528;28;20085;-84
2022/03/12 06:37:00;;;;;;;125.07;41.43;;;-3.40;73.00;;;;;;10285409;28;20042;-84
2022/03/12 06:42:02;;;;;;;100.10;35.93;;;-3.20;73.30;;;;;;10285340;28;20035;-84
2022/03/12 06:47:07;;;;;;;37.30;13.80;;;-3.00;73.60;;;;;;10285374;28;20364;-84
2022/03/12 06:52:08;;;;;;;86.18;30.83;;;-2.70;72.00;;;;;;10284671;28;20039;-84
2022/03/12 06:57:10;;;;;;;84.00;31.03;;;-2.60;72.50;;;;;;10271671;28;20483;-84
2022/03/12 07:02:11;;;;;;;36.87;14.13;;;-2.30;72.70;;;;;;10283583;28;20034;-86
2022/03/12 07:07:11;;;;;;;387.43;218.80;;;-2.10;71.30;;;;;;10256262;28;20019;-83
2022/03/12 07:12:12;;;;;;;191.13;73.73;;;-1.90;72.30;;;;;;10273319;28;20069;-84
2022/03/12 07:17:13;;;;;;;141.37;55.43;;;-1.80;72.10;;;;;;10292503;28;20479;-84
2022/03/12 07:22:14;;;;;;;75.53;26.37;;;-1.50;70.80;;;;;;10283748;28;20054;-84
2022/03/12 07:27:15;;;;;;;82.10;30.00;;;-1.20;70.80;;;;;;10291629;28;20047;-85
2022/03/12 07:32:16;;;;;;;103.83;39.47;;;-1.00;70.30;;;;;;10291145;28;20071;-85
2022/03/12 07:37:17;;;;;;;48.23;19.67;;;-0.70;69.90;;;;;;10291650;28;20090;-87
2022/03/12 07:42:18;;;;;;;38.13;15.57;;;-0.40;68.20;;;;;;10290788;28;20027;-86
2022/03/12 07:47:19;;;;;;;70.37;29.03;;;0.00;68.20;;;;;;10290905;28;20390;-86
2022/03/12 07:52:19;;;;;;;34.23;15.13;;;0.30;68.70;;;;;;10290940;28;20050;-86
2022/03/12 07:57:26;;;;;;;32.90;14.67;;;0.70;66.90;;;;;;10289991;28;20041;-85
2022/03/12 08:02:27;;;;;;;32.13;13.60;;;1.10;66.60;;;;;;10290456;28;20034;-85
2022/03/12 08:07:28;;;;;;;32.33;13.63;;;1.50;62.30;;;;;;10290245;28;20058;-87
2022/03/12 08:12:31;;;;;;;39.03;16.37;;;1.80;60.50;;;;;;10288219;28;20126;-86
2022/03/12 08:17:32;;;;;;;165.97;70.03;;;2.00;61.50;;;;;;10272894;28;20395;-85
2022/03/12 08:22:38;;;;;;;174.57;63.03;;;2.30;61.50;;;;;;10272367;28;20035;-85
2022/03/12 08:27:39;;;;;;;38.97;17.00;;;2.60;62.40;;;;;;10260575;28;20057;-84
2022/03/12 08:32:41;;;;;;;31.17;13.43;;;3.00;61.60;;;;;;10283923;28;20038;-86
2022/03/12 08:37:42;;;;;;;38.30;16.17;;;3.30;60.60;;;;;;10263753;28;20419;-85
2022/03/12 08:42:43;;;;;;;58.43;24.87;;;3.50;59.50;;;;;;10272906;28;20031;-85
2022/03/12 08:47:43;;;;;;;191.17;91.97;;;3.90;58.10;;;;;;10289344;28;20043;-86
2022/03/12 08:52:44;;;;;;;97.50;34.97;;;4.10;57.10;;;;;;10288448;28;20051;-85
2022/03/12 08:57:46;;;;;;;104.43;36.60;;;4.40;57.30;;;;;;10287071;28;20035;-85
2022/03/12 09:02:47;;;;;;;29.53;13.67;;;4.60;56.20;;;;;;10287944;28;20085;-83
2022/03/12 09:07:51;;;;;;;49.43;19.17;;;4.70;57.10;;;;;;10281946;28;20062;-83
2022/03/12 09:12:53;;;;;;;45.33;20.77;;;4.90;55.80;;;;;;10282539;28;20722;-84
2022/03/12 09:17:53;;;;;;;31.20;14.53;;;5.20;55.90;;;;;;10254291;28;20231;-85
2022/03/12 09:22:54;;;;;;;33.07;15.10;;;5.30;54.70;;;;;;10271364;28;20026;-84
2022/03/12 09:27:55;;;;;;;65.77;29.13;;;5.40;53.90;;;;;;10262781;28;20494;-84
2022/03/12 09:32:55;;;;;;;43.77;21.97;;;5.60;54.50;;;;;;10272117;28;20034;-84
2022/03/12 09:37:57;;;;;;;58.73;24.07;;;5.90;53.80;;;;;;10274739;28;20046;-83
2022/03/12 09:42:58;;;;;;;147.33;88.00;;;6.20;53.70;;;;;;10260312;28;20060;-85
2022/03/12 09:47:59;;;;;;;39.13;26.13;;;6.40;52.00;;;;;;10273744;28;20063;-84
2022/03/12 10:09:18;;;;;;;25.43;12.87;;;6.50;50.30;;;;;;10283413;23;20459;-83
2022/03/12 10:14:19;;;;;;;31.30;14.10;;;6.30;48.40;;;;;;10245870;29;20051;-85
2022/03/12 10:19:20;;;;;;;29.73;15.17;;;6.70;50.50;;;;;;10227166;29;20031;-85
2022/03/12 10:24:21;;;;;;;29.67;14.90;;;7.00;51.00;;;;;;10245705;29;20035;-82
2022/03/12 10:29:21;;;;;;;71.83;29.37;;;7.00;49.40;;;;;;10244670;29;20713;-83
2022/03/12 10:46:23;;;;;;;27.93;13.93;;;7.70;47.90;;;;;;10251459;29;20027;-84
2022/03/12 10:51:40;;;;;;;24.57;12.23;;;7.90;48.20;;;;;;10252895;29;20043;-85
2022/03/12 10:57:36;;;;;;;28.83;12.80;;;8.00;45.40;;;;;;10253835;28;20122;-82
2022/03/12 11:15:15;;;;;;;25.17;11.73;;;8.00;46.50;;;;;;10067048;29;20490;-84
2022/03/12 11:30:43;;;;;;;21.10;10.33;;;8.50;44.40;;;;;;12360774;23;20038;-84
2022/03/12 11:35:45;;;;;;;26.60;12.80;;;8.40;43.50;;;;;;10203087;29;20046;-85
2022/03/12 11:40:49;;;;;;;42.30;16.80;;;8.50;43.70;;;;;;10208552;29;20032;-85
2022/03/12 11:45:52;;;;;;;26.73;13.93;;;8.80;44.80;;;;;;10211583;29;20031;-83
2022/03/12 11:50:54;;;;;;;33.83;14.23;;;9.10;45.80;;;;;;10190977;29;20384;-86
2022/03/12 11:55:56;;;;;;;69.37;29.20;;;9.20;44.50;;;;;;10209967;29;20122;-85
2022/03/12 12:00:57;;;;;;;30.30;13.63;;;9.50;45.30;;;;;;10192863;29;20027;-82
2022/03/12 12:05:57;;;;;;;93.83;40.63;;;9.70;45.10;;;;;;10211173;29;20031;-84
2022/03/12 12:11:01;;;;;;;50.23;21.57;;;9.80;44.00;;;;;;10209259;29;20487;-84
2022/03/12 12:16:04;;;;;;;43.17;18.37;;;9.80;44.10;;;;;;10209194;29;20032;-86
2022/03/12 12:21:04;;;;;;;45.73;19.23;;;9.80;43.10;;;;;;10210409;29;20020;-84
2022/03/12 12:26:08;;;;;;;21.37;9.40;;;9.80;42.40;;;;;;10209850;29;20031;-84
2022/03/12 12:31:33;;;;;;;48.97;19.87;;;9.90;42.10;;;;;;10209667;29;20047;-85
2022/03/12 12:36:35;;;;;;;20.80;10.67;;;10.10;41.30;;;;;;10206398;29;20055;-85
2022/03/12 12:41:56;;;;;;;25.00;10.27;;;10.10;43.10;;;;;;10228906;29;20035;-85
2022/03/12 12:46:56;;;;;;;18.53;8.00;;;10.20;40.70;;;;;;10207237;29;20032;-83
2022/03/12 12:51:58;;;;;;;63.97;28.97;;;10.30;41.80;;;;;;10209120;29;20039;-83
2022/03/12 12:57:02;;;;;;;52.65;24.20;;;10.50;42.20;;;;;;10208895;29;20634;-83
2022/03/12 13:02:04;;;;;;;32.50;14.40;;;10.50;41.70;;;;;;10208908;29;20032;-85
2022/03/12 13:07:25;;;;;;;39.83;17.97;;;10.50;41.40;;;;;;10208223;29;20043;-84
2022/03/12 13:12:41;;;;;;;14.88;7.63;;;10.60;41.30;;;;;;10207726;29;20468;-83
2022/03/12 13:17:43;;;;;;;16.17;8.30;;;10.50;40.00;;;;;;10208570;29;20130;-84
2022/03/12 13:22:44;;;;;;;16.73;7.80;;;10.10;39.30;;;;;;10207591;29;20597;-81
2022/03/12 13:28:02;;;;;;;40.07;15.50;;;10.00;40.50;;;;;;10210791;29;20411;-82
2022/03/12 13:33:06;;;;;;;106.80;48.87;;;10.10;41.60;;;;;;10223443;29;20059;-85
2022/03/12 13:38:07;;;;;;;21.83;10.70;;;10.20;40.80;;;;;;10207582;29;20031;-81
2022/03/12 13:43:08;;;;;;;90.37;35.20;;;10.20;40.80;;;;;;10206715;29;20028;-87
2022/03/12 13:48:09;;;;;;;39.17;16.37;;;10.20;40.60;;;;;;10204959;29;20040;-83
2022/03/12 13:53:13;;;;;;;53.27;23.07;;;10.20;40.90;;;;;;10189506;29;20076;-83
2022/03/12 13:58:19;;;;;;;124.90;55.83;;;10.10;40.00;;;;;;10206196;29;20032;-84
2022/03/12 14:03:20;;;;;;;33.47;16.33;;;10.10;41.60;;;;;;10206648;29;20036;-85
2022/03/12 14:08:29;;;;;;;48.10;22.40;;;10.10;40.70;;;;;;10207780;29;20042;-84
2022/03/12 14:13:29;;;;;;;26.23;11.50;;;10.10;41.00;;;;;;10190017;29;20047;-83
2022/03/12 14:18:35;;;;;;;37.07;17.60;;;10.10;40.00;;;;;;10207170;29;20476;-84
2022/03/12 14:23:35;;;;;;;80.15;40.78;;;9.90;39.70;;;;;;10213373;29;20027;-84
2022/03/12 14:28:36;;;;;;;52.60;28.80;;;9.80;40.90;;;;;;10214630;29;20063;-86
2022/03/12 14:33:37;;;;;;;118.70;60.13;;;9.70;41.30;;;;;;10213584;29;20517;-85
2022/03/12 14:38:39;;;;;;;33.13;16.07;;;9.70;41.50;;;;;;10199295;29;20103;-84
2022/03/12 14:43:40;;;;;;;22.93;11.00;;;9.70;41.20;;;;;;10213288;29;20436;-85
2022/03/12 14:48:44;;;;;;;26.87;12.20;;;9.60;40.30;;;;;;10213282;29;20035;-85
2022/03/12 14:53:45;;;;;;;36.30;14.37;;;9.40;40.60;;;;;;10178774;29;20415;-85
2022/03/12 14:58:46;;;;;;;29.87;14.90;;;9.30;41.60;;;;;;10207756;29;20781;-87
2022/03/12 15:03:53;;;;;;;20.13;9.43;;;9.20;41.30;;;;;;10212401;29;20036;-86
2022/03/12 15:09:04;;;;;;;24.93;11.13;;;9.00;40.60;;;;;;10191317;29;20039;-86
2022/03/12 15:14:05;;;;;;;107.90;60.57;;;8.90;41.30;;;;;;10193669;29;20126;-85
2022/03/12 15:19:13;;;;;;;39.27;20.60;;;8.70;41.30;;;;;;10208569;29;20027;-86
2022/03/12 15:24:14;;;;;;;58.93;26.00;;;8.60;41.00;;;;;;10204198;29;20042;-86
2022/03/12 15:29:15;;;;;;;493.63;238.07;;;8.50;41.40;;;;;;10208760;29;20032;-85
2022/03/12 15:34:16;;;;;;;169.47;85.80;;;8.50;41.00;;;;;;10194869;29;20051;-86
2022/03/12 15:39:16;;;;;;;65.30;30.77;;;8.40;40.90;;;;;;10210180;29;20032;-86
2022/03/12 15:44:17;;;;;;;29.53;15.30;;;8.30;41.30;;;;;;10208559;29;20036;-86
2022/03/12 15:49:18;;;;;;;57.43;29.47;;;8.20;42.00;;;;;;10208903;29;20082;-86
2022/03/12 15:54:19;;;;;;;79.60;34.63;;;8.10;42.00;;;;;;10192102;29;20043;-86
2022/03/12 15:59:22;;;;;;;89.93;39.00;;;8.00;42.40;;;;;;10202853;29;20103;-86
2022/03/12 16:04:22;;;;;;;81.47;36.80;;;7.80;41.70;;;;;;10192531;29;20669;-86
2022/03/12 16:09:24;;;;;;;91.30;38.70;;;7.80;41.50;;;;;;10193334;29;20126;-84
2022/03/12 16:14:28;;;;;;;166.80;69.67;;;7.60;41.90;;;;;;10192364;29;20083;-85
2022/03/12 16:19:28;;;;;;;301.03;120.23;;;7.40;42.10;;;;;;10209390;29;20042;-84
2022/03/12 16:24:30;;;;;;;231.37;90.30;;;7.00;42.80;;;;;;10207503;29;20041;-84
2022/03/12 16:29:31;;;;;;;108.07;39.07;;;6.50;42.90;;;;;;10201309;29;20035;-84
2022/03/12 16:34:32;;;;;;;54.93;23.03;;;6.10;43.80;;;;;;10199294;29;20051;-84
2022/03/12 16:39:34;;;;;;;126.63;47.97;;;5.70;44.10;;;;;;10199718;29;20070;-85
2022/03/12 16:44:35;;;;;;;159.50;61.33;;;5.30;43.70;;;;;;10208639;29;20530;-84
2022/03/12 16:49:37;;;;;;;244.77;96.57;;;4.90;43.90;;;;;;10156963;29;20067;-85
2022/03/12 16:54:37;;;;;;;204.63;83.23;;;4.50;44.80;;;;;;10188417;29;20539;-84
2022/03/12 16:59:38;;;;;;;139.13;61.10;;;4.20;44.80;;;;;;10207601;29;20087;-83
2022/03/12 17:04:41;;;;;;;59.57;24.63;;;3.90;44.80;;;;;;10190984;29;20040;-83
2022/03/12 17:09:43;;;;;;;70.37;27.93;;;3.80;45.00;;;;;;10209711;29;20036;-84
2022/03/12 17:14:44;;;;;;;56.17;22.47;;;3.80;44.80;;;;;;10210299;29;20075;-86
2022/03/12 17:19:45;;;;;;;44.83;20.03;;;3.80;45.20;;;;;;10211413;29;20047;-83
2022/03/12 17:24:47;;;;;;;54.17;21.67;;;3.80;45.80;;;;;;10208419;29;20395;-84
2022/03/12 17:29:48;;;;;;;43.17;17.87;;;3.60;46.40;;;;;;10221298;29;20127;-85
2022/03/12 17:34:53;;;;;;;42.70;18.57;;;3.40;46.60;;;;;;10209448;29;20051;-83
2022/03/12 17:39:55;;;;;;;46.73;18.60;;;3.20;47.20;;;;;;10190219;29;20374;-85
2022/03/12 17:44:55;;;;;;;38.07;15.60;;;3.00;47.70;;;;;;10192931;29;20487;-84
2022/03/12 17:49:58;;;;;;;42.57;17.43;;;2.80;48.60;;;;;;10205124;29;20036;-83
2022/03/12 17:55:01;;;;;;;54.27;23.17;;;2.70;49.80;;;;;;10206435;29;20071;-87
2022/03/12 18:00:05;;;;;;;69.90;29.83;;;2.50;48.60;;;;;;10232038;29;20510;-86
2022/03/12 18:05:06;;;;;;;89.07;36.07;;;2.40;49.30;;;;;;10214767;28;20118;-86
2022/03/12 18:10:07;;;;;;;94.80;38.17;;;2.20;49.20;;;;;;10207796;29;20039;-84
2022/03/12 18:15:09;;;;;;;83.70;35.03;;;2.10;49.20;;;;;;10220894;28;20090;-85
2022/03/12 18:20:11;;;;;;;116.90;44.60;;;2.00;49.50;;;;;;10207374;29;20023;-85
2022/03/12 18:25:16;;;;;;;132.80;49.63;;;1.80;51.00;;;;;;10243331;28;20051;-83
2022/03/12 18:30:17;;;;;;;78.83;30.17;;;1.70;50.70;;;;;;10226260;29;20031;-83
2022/03/12 18:35:18;;;;;;;72.60;30.40;;;1.60;51.40;;;;;;10208136;29;20064;-83
2022/03/12 18:40:20;;;;;;;76.33;31.40;;;1.50;51.70;;;;;;10208448;29;20036;-83
2022/03/12 18:45:22;;;;;;;70.13;28.07;;;1.40;52.00;;;;;;10186485;29;20043;-84
2022/03/12 18:50:27;;;;;;;67.07;27.97;;;1.40;52.10;;;;;;10183808;29;20083;-84
2022/03/12 18:55:30;;;;;;;62.33;26.33;;;1.30;52.30;;;;;;10201477;29;20087;-84
2022/03/12 19:00:33;;;;;;;65.07;25.53;;;1.20;52.40;;;;;;10197785;28;20038;-81
2022/03/12 19:05:35;;;;;;;57.90;23.87;;;1.10;52.90;;;;;;10201086;29;20119;-85
2022/03/12 19:10:36;;;;;;;65.50;26.50;;;1.00;52.60;;;;;;10233620;29;20062;-83
2022/03/12 19:15:38;;;;;;;66.23;26.73;;;0.90;53.10;;;;;;10230850;28;20043;-84
2022/03/12 19:20:41;;;;;;;64.40;27.13;;;0.90;53.40;;;;;;10213052;29;20118;-84
2022/03/12 19:25:43;;;;;;;69.40;29.20;;;0.80;53.40;;;;;;10211725;29;20035;-83
2022/03/12 19:30:45;;;;;;;64.40;26.20;;;0.70;53.90;;;;;;10210089;29;20452;-83
2022/03/12 19:35:45;;;;;;;61.97;25.13;;;0.70;53.80;;;;;;10211441;29;20055;-83
2022/03/12 19:40:48;;;;;;;61.20;25.60;;;0.60;53.70;;;;;;10233859;29;20027;-84
2022/03/12 19:45:49;;;;;;;63.63;25.77;;;0.60;54.20;;;;;;10223766;29;20561;-84
2022/03/12 19:50:49;;;;;;;64.70;23.97;;;0.60;55.10;;;;;;10196771;29;20039;-84
2022/03/12 19:55:50;;;;;;;56.27;23.77;;;0.60;55.10;;;;;;10211575;29;20032;-84
2022/03/12 20:00:51;;;;;;;72.17;27.80;;;0.50;55.50;;;;;;10240942;29;20031;-84
2022/03/12 20:05:52;;;;;;;77.43;29.63;;;0.50;55.20;;;;;;10188923;29;20464;-83
2022/03/12 20:10:53;;;;;;;74.93;28.13;;;0.40;56.10;;;;;;10227297;29;20123;-84
2022/03/12 20:15:54;;;;;;;98.43;35.13;;;0.30;55.40;;;;;;10207979;29;20043;-85
2022/03/12 20:20:56;;;;;;;118.20;41.60;;;0.30;55.90;;;;;;10203303;29;20046;-84
2022/03/12 20:25:57;;;;;;;206.00;76.93;;;0.30;55.90;;;;;;10190662;29;20070;-84
2022/03/12 20:31:00;;;;;;;147.40;53.90;;;0.20;55.80;;;;;;10175987;29;20111;-84
2022/03/12 20:36:00;;;;;;;100.90;35.83;;;0.20;55.70;;;;;;10179237;29;20130;-83
2022/03/12 20:41:01;;;;;;;110.47;42.23;;;0.30;56.00;;;;;;10186351;29;20043;-83
2022/03/12 20:46:02;;;;;;;100.70;38.23;;;0.30;55.90;;;;;;10205035;29;20038;-83
2022/03/12 20:51:03;;;;;;;86.87;32.10;;;0.20;56.00;;;;;;10207923;28;20488;-84
2022/03/12 20:56:04;;;;;;;73.23;29.20;;;0.20;56.00;;;;;;10204620;29;20047;-84
2022/03/12 21:01:05;;;;;;;77.10;31.37;;;0.20;56.20;;;;;;10218650;29;20031;-84
2022/03/12 21:06:06;;;;;;;79.63;30.70;;;0.20;56.20;;;;;;10192931;29;20036;-84
2022/03/12 21:11:06;;;;;;;89.57;37.30;;;0.10;56.40;;;;;;10153157;29;20040;-84
2022/03/12 21:16:07;;;;;;;90.97;35.30;;;0.10;56.70;;;;;;10193776;29;20043;-84
2022/03/12 21:21:08;;;;;;;106.03;37.70;;;0.00;56.50;;;;;;10198659;29;20032;-82
2022/03/12 21:26:09;;;;;;;86.17;33.87;;;0.00;56.90;;;;;;10200091;29;20480;-85
2022/03/12 21:31:10;;;;;;;74.57;29.03;;;-0.10;57.00;;;;;;10230993;29;20557;-84
2022/03/12 21:36:12;;;;;;;67.50;26.23;;;0.00;56.80;;;;;;10217820;29;20089;-84
2022/03/12 21:41:13;;;;;;;77.03;28.60;;;-0.10;57.20;;;;;;10222443;28;20502;-84
2022/03/12 21:46:15;;;;;;;82.37;32.23;;;-0.10;57.10;;;;;;10191981;29;20032;-84
2022/03/12 22:31:39;;;;;;;84.23;30.60;;;-0.70;59.80;;;;;;12437994;23;20026;-84
2022/03/12 22:42:39;;;;;;;82.33;31.63;;;-0.70;60.20;;;;;;10207362;29;20028;-85
2022/03/12 22:53:43;;;;;;;75.80;30.47;;;-0.70;60.40;;;;;;10216272;29;20051;-85
2022/03/12 22:58:45;;;;;;;68.73;26.77;;;-0.80;60.10;;;;;;10246344;29;20028;-85
2022/03/12 23:15:44;;;;;;;60.80;25.37;;;-0.90;60.10;;;;;;10296350;23;20094;-85
2022/03/12 23:20:44;;;;;;;93.70;33.63;;;-0.90;60.30;;;;;;10181464;29;20486;-85
2022/03/12 23:26:42;;;;;;;128.73;47.47;;;-0.90;60.10;;;;;;10250221;29;20059;-85
2022/03/12 23:32:36;;;;;;;169.45;58.47;;;-0.90;60.10;;;;;;10243745;29;20388;-85
2022/03/12 23:37:40;;;;;;;140.93;47.13;;;-1.00;60.10;;;;;;10134443;29;20063;-85
2022/03/12 23:42:41;;;;;;;100.33;37.97;;;-1.00;60.40;;;;;;10251131;29;20031;-85
2022/03/12 23:47:46;;;;;;;95.57;38.03;;;-1.00;60.50;;;;;;10246773;28;20491;-85
2022/03/12 23:52:47;;;;;;;96.37;39.27;;;-1.00;60.70;;;;;;10234765;29;20287;-85
2022/03/12 23:57:48;;;;;;;102.37;40.90;;;-1.20;63.00;;;;;;10276589;28;20435;-85
